Time;durP1;ratioP1;P1;durP2;ratioP2;P2;SDS_P1;SDS_P2;PMS_P1;PMS_P2;Temp;Humidity;BMP_temperature;BMP_pressure;BME280_temperature;BME280_humidity;BME280_pressure;Samples;Min_cycle;Max_cycle;Signal;HPM_P1;HPM_P2
2021/10/25 00:00:02;;;;;;;50.00;26.12;;;;;;;2.82;81.18;101184.00;1762902;80;21052;-88
2021/10/25 00:02:28;;;;;;;47.75;26.90;;;;;;;2.79;81.30;101170.59;1766077;80;21030;-88
2021/10/25 00:04:54;;;;;;;47.58;26.10;;;;;;;2.78;81.36;101174.56;1759468;81;21464;-88
2021/10/25 00:07:20;;;;;;;51.02;26.77;;;;;;;2.74;81.42;101167.73;1761463;80;20984;-88
2021/10/25 00:09:46;;;;;;;46.83;24.25;;;;;;;2.72;81.58;101162.53;1758221;81;21503;-88
2021/10/25 00:12:11;;;;;;;49.85;25.65;;;;;;;2.68;81.63;101166.59;1767597;80;21017;-88
2021/10/25 00:14:37;;;;;;;45.92;25.20;;;;;;;2.63;81.81;101165.84;1757830;81;21069;-87
2021/10/25 00:17:03;;;;;;;46.68;22.27;;;;;;;2.61;81.96;101165.04;1763873;81;20981;-88
2021/10/25 00:19:31;;;;;;;46.37;22.95;;;;;;;2.59;82.14;101168.97;1762128;80;21029;-88
2021/10/25 00:21:57;;;;;;;49.80;24.23;;;;;;;2.58;82.23;101169.42;1764700;80;21072;-88
2021/10/25 00:24:23;;;;;;;49.13;24.27;;;;;;;2.58;82.26;101160.76;1764796;80;20997;-88
2021/10/25 00:26:49;;;;;;;46.80;25.55;;;;;;;2.56;82.22;101159.93;1748363;82;20985;-87
2021/10/25 00:29:15;;;;;;;42.53;23.87;;;;;;;2.54;82.08;101159.98;1754516;80;20953;-88
2021/10/25 00:31:41;;;;;;;48.20;24.02;;;;;;;2.54;82.22;101155.23;1774387;80;21467;-87
2021/10/25 00:34:08;;;;;;;44.75;25.92;;;;;;;2.53;82.11;101152.19;1763946;80;21445;-88
2021/10/25 00:36:34;;;;;;;49.42;26.00;;;;;;;2.52;82.32;101151.80;1773807;80;21033;-88
2021/10/25 00:39:00;;;;;;;41.13;24.55;;;;;;;2.49;82.09;101151.42;1775733;80;20958;-88
2021/10/25 00:41:26;;;;;;;49.25;25.30;;;;;;;2.46;82.27;101155.86;1770051;80;20994;-88
2021/10/25 00:43:52;;;;;;;45.67;24.18;;;;;;;2.43;82.27;101145.52;1769809;80;20961;-88
2021/10/25 00:46:18;;;;;;;41.28;24.60;;;;;;;2.42;82.46;101153.78;1755614;80;20985;-88
2021/10/25 00:48:44;;;;;;;43.15;22.82;;;;;;;2.41;82.43;101148.17;1748439;81;21018;-87
2021/10/25 00:51:14;;;;;;;45.78;23.85;;;;;;;2.37;82.39;101138.73;1783122;80;21041;-88
2021/10/25 00:53:41;;;;;;;41.10;22.87;;;;;;;2.35;82.49;101153.53;1783985;80;21020;-88
2021/10/25 00:56:09;;;;;;;47.00;25.30;;;;;;;2.32;82.58;101141.89;1778606;80;20985;-88
2021/10/25 00:58:36;;;;;;;38.23;21.37;;;;;;;2.31;82.72;101144.09;1763493;80;20958;-87
2021/10/25 01:01:04;;;;;;;40.00;22.15;;;;;;;2.29;82.81;101140.66;1771829;80;21453;-87
2021/10/25 01:03:30;;;;;;;42.70;22.87;;;;;;;2.27;82.69;101141.14;1759830;81;21428;-87
2021/10/25 01:05:56;;;;;;;46.80;23.05;;;;;;;2.25;82.92;101137.73;1768646;81;20961;-88
2021/10/25 01:08:25;;;;;;;41.28;22.93;;;;;;;2.23;83.02;101137.76;1765177;80;20986;-88
2021/10/25 01:10:51;;;;;;;42.55;21.77;;;;;;;2.23;82.93;101137.76;1763478;80;21435;-87
2021/10/25 01:13:17;;;;;;;35.98;21.77;;;;;;;2.21;82.95;101134.81;1731297;81;21033;-88
2021/10/25 01:15:43;;;;;;;44.80;24.57;;;;;;;2.20;83.00;101132.63;1750770;80;20961;-88
2021/10/25 01:18:09;;;;;;;39.05;21.30;;;;;;;2.18;82.97;101127.92;1753032;81;20993;-88
2021/10/25 01:20:35;;;;;;;43.55;22.42;;;;;;;2.16;82.98;101125.79;1763828;80;20998;-88
2021/10/25 01:23:01;;;;;;;44.88;23.55;;;;;;;2.16;82.91;101123.64;1759529;80;20954;-88
2021/10/25 01:25:28;;;;;;;44.95;22.85;;;;;;;2.13;82.99;101121.96;1749803;80;20989;-88
2021/10/25 01:27:54;;;;;;;40.05;22.00;;;;;;;2.10;82.94;101114.22;1769620;81;20982;-88
2021/10/25 01:30:21;;;;;;;39.92;23.30;;;;;;;2.07;82.97;101115.18;1748108;81;20946;-88
2021/10/25 01:32:50;;;;;;;41.42;21.55;;;;;;;2.04;83.03;101107.44;1777235;80;20981;-88
2021/10/25 01:35:18;;;;;;;38.75;20.45;;;;;;;2.04;82.85;101107.44;1747647;82;21040;-88
2021/10/25 01:37:44;;;;;;;43.00;22.17;;;;;;;2.03;82.90;101104.86;1750500;80;21037;-87
2021/10/25 01:40:12;;;;;;;38.30;21.37;;;;;;;2.01;83.09;101095.80;1781409;80;21586;-89
2021/10/25 01:42:39;;;;;;;40.35;19.70;;;;;;;1.99;83.00;101095.42;1779318;80;20985;-88
2021/10/25 01:45:07;;;;;;;38.05;21.68;;;;;;;1.99;83.05;101101.93;1781282;80;20990;-88
2021/10/25 01:47:33;;;;;;;36.30;19.92;;;;;;;1.96;83.14;101098.95;1751647;80;21004;-88
2021/10/25 01:50:00;;;;;;;41.25;21.80;;;;;;;1.94;83.24;101096.85;1747961;82;20985;-88
2021/10/25 01:52:26;;;;;;;40.52;21.30;;;;;;;1.93;83.23;101092.97;1754422;81;21044;-87
2021/10/25 01:54:52;;;;;;;37.25;20.95;;;;;;;1.93;83.24;101089.91;1780406;80;21029;-88
2021/10/25 01:57:18;;;;;;;36.77;22.10;;;;;;;1.92;83.23;101087.36;1784115;80;20976;-88
2021/10/25 01:59:44;;;;;;;40.50;19.82;;;;;;;1.89;83.23;101083.08;1782054;80;21005;-87
2021/10/25 02:02:10;;;;;;;41.10;20.65;;;;;;;1.86;83.19;101074.05;1752126;80;20934;-88
2021/10/25 02:04:37;;;;;;;39.63;20.45;;;;;;;1.82;83.14;101072.42;1784354;80;21452;-87
2021/10/25 02:07:02;;;;;;;41.37;18.70;;;;;;;1.79;83.18;101065.98;1780562;80;21194;-88
2021/10/25 02:09:28;;;;;;;38.13;18.57;;;;;;;1.75;83.37;101062.61;1765448;80;21029;-88
2021/10/25 02:11:55;;;;;;;34.38;18.90;;;;;;;1.75;83.40;101072.16;1775872;80;20950;-88
2021/10/25 02:14:20;;;;;;;37.98;19.00;;;;;;;1.74;83.40;101063.93;1782700;80;21040;-87
2021/10/25 02:16:46;;;;;;;35.00;18.90;;;;;;;1.74;83.42;101059.58;1782977;80;21503;-87
2021/10/25 02:19:13;;;;;;;34.45;18.17;;;;;;;1.74;83.35;101055.67;1770543;80;20994;-87
2021/10/25 02:21:40;;;;;;;40.78;17.67;;;;;;;1.72;83.25;101050.97;1768958;80;21382;-87
2021/10/25 02:24:06;;;;;;;31.50;18.27;;;;;;;1.70;83.28;101048.84;1780560;80;21002;-87
2021/10/25 02:26:32;;;;;;;32.65;18.05;;;;;;;1.71;83.33;101048.39;1749550;81;20995;-87
2021/10/25 02:28:59;;;;;;;35.28;17.70;;;;;;;1.70;83.49;101046.23;1763864;80;20990;-87
2021/10/25 02:31:25;;;;;;;35.05;18.62;;;;;;;1.68;83.39;101047.16;1763396;80;21010;-87
2021/10/25 02:33:51;;;;;;;33.15;19.20;;;;;;;1.67;83.32;101042.41;1763937;80;21023;-88
2021/10/25 02:36:17;;;;;;;37.58;18.95;;;;;;;1.64;83.34;101039.42;1763470;81;20997;-88
2021/10/25 02:38:43;;;;;;;32.08;17.52;;;;;;;1.62;83.42;101044.28;1763353;80;20977;-87
2021/10/25 02:41:11;;;;;;;32.00;16.90;;;;;;;1.57;83.53;101045.67;1780910;80;20989;-88
2021/10/25 02:43:38;;;;;;;32.63;16.50;;;;;;;1.54;83.58;101044.90;1768939;80;21029;-88
2021/10/25 02:46:05;;;;;;;32.38;17.37;;;;;;;1.52;83.48;101043.65;1778460;80;20989;-88
2021/10/25 02:48:32;;;;;;;31.93;17.92;;;;;;;1.51;83.73;101043.67;1752279;81;21014;-87
2021/10/25 02:50:58;;;;;;;32.38;17.60;;;;;;;1.51;83.82;101037.16;1770512;81;21012;-88
2021/10/25 02:53:25;;;;;;;32.05;15.30;;;;;;;1.50;83.61;101046.72;1763656;81;21006;-87
2021/10/25 02:55:51;;;;;;;32.95;16.37;;;;;;;1.50;83.83;101038.06;1781253;80;21572;-87
2021/10/25 02:58:17;;;;;;;32.10;18.12;;;;;;;1.50;83.94;101044.12;1778941;81;21009;-87
2021/10/25 03:00:44;;;;;;;36.85;17.57;;;;;;;1.52;83.84;101037.59;1781326;80;21040;-88
2021/10/25 03:03:10;;;;;;;37.08;19.25;;;;;;;1.51;83.87;101034.11;1780885;80;20949;-87
2021/10/25 03:05:36;;;;;;;31.80;17.95;;;;;;;1.51;83.93;101029.36;1782209;80;21041;-87
2021/10/25 03:08:03;;;;;;;41.42;20.52;;;;;;;1.51;83.76;101021.56;1784068;80;21447;-88
2021/10/25 03:10:29;;;;;;;39.20;18.45;;;;;;;1.48;83.93;101026.83;1758225;80;20987;-87
2021/10/25 03:12:55;;;;;;;35.43;15.78;;;;;;;1.47;83.88;101027.73;1763700;80;21010;-88
2021/10/25 03:15:22;;;;;;;25.37;14.95;;;;;;;1.46;83.85;101025.58;1763493;81;21452;-87
2021/10/25 03:17:48;;;;;;;30.82;15.45;;;;;;;1.46;83.90;101023.44;1763426;81;21015;-87
2021/10/25 03:20:14;;;;;;;24.43;14.47;;;;;;;1.46;83.92;101019.53;1780999;80;20970;-87
2021/10/25 03:22:41;;;;;;;35.35;17.00;;;;;;;1.43;83.87;101021.75;1784096;80;20957;-87
2021/10/25 03:25:09;;;;;;;30.05;15.60;;;;;;;1.43;83.99;101023.50;1772680;80;20962;-87
2021/10/25 03:27:35;;;;;;;21.55;13.58;;;;;;;1.40;84.13;101020.07;1763702;81;21480;-88
2021/10/25 03:30:03;;;;;;;21.48;12.65;;;;;;;1.38;84.09;101017.97;1776088;80;20958;-87
2021/10/25 03:32:29;;;;;;;32.53;14.18;;;;;;;1.37;84.23;101014.94;1784018;80;21009;-87
2021/10/25 03:34:55;;;;;;;26.40;12.75;;;;;;;1.35;84.26;101016.74;1783724;80;20966;-87
2021/10/25 03:37:22;;;;;;;31.45;14.28;;;;;;;1.34;84.19;101016.31;1784409;80;21001;-87
2021/10/25 03:39:50;;;;;;;22.20;13.10;;;;;;;1.35;84.26;101015.86;1777066;80;22250;-88
2021/10/25 03:42:59;;;;;;;23.22;14.63;;;;;;;1.33;84.29;101004.21;1769596;80;21029;-87
2021/10/25 03:44:54;;;;;;;28.07;14.70;;;;;;;1.33;84.25;101010.71;1753340;81;21014;-88
2021/10/25 03:47:22;;;;;;;34.58;17.10;;;;;;;1.32;84.25;101006.41;1769915;80;21001;-87
2021/10/25 03:50:03;;;;;;;38.20;17.17;;;;;;;1.32;84.35;101001.66;1778156;80;21065;-88
2021/10/25 03:52:34;;;;;;;34.58;15.68;;;;;;;1.31;84.17;100999.48;1782300;80;21056;-87
2021/10/25 03:55:11;;;;;;;34.45;15.70;;;;;;;1.29;84.16;100997.83;1765762;80;21029;-88
2021/10/25 04:25:25;;;;;;;29.65;12.47;;;;;;;1.24;84.37;100973.22;1765897;80;21566;-87
2021/10/25 04:29:46;;;;;;;21.82;12.05;;;;;;;1.21;84.50;100971.14;1758670;81;20973;-87
2021/10/25 04:32:10;;;;;;;19.15;10.20;;;;;;;1.20;84.34;100970.29;1779458;80;21029;-86
2021/10/25 04:34:37;;;;;;;22.70;10.98;;;;;;;1.20;84.59;100967.69;1763913;81;21512;-87
2021/10/25 04:37:03;;;;;;;20.12;11.95;;;;;;;1.22;84.50;100966.34;1763588;81;21467;-88
2021/10/25 04:39:29;;;;;;;22.35;10.40;;;;;;;1.20;84.46;100961.19;1763764;81;21010;-87
2021/10/25 04:41:55;;;;;;;19.57;11.25;;;;;;;1.21;84.37;100971.14;1763703;81;21488;-87
2021/10/25 04:44:21;;;;;;;13.90;8.68;;;;;;;1.20;84.51;100966.39;1763714;81;21073;-87
2021/10/25 04:46:47;;;;;;;17.05;9.88;;;;;;;1.21;84.47;100960.30;1714654;83;21577;-87
2021/10/25 04:49:13;;;;;;;21.30;11.90;;;;;;;1.20;84.39;100956.44;1763829;81;20994;-87
2021/10/25 04:51:40;;;;;;;20.10;9.88;;;;;;;1.19;84.37;100960.80;1763886;81;20998;-86
2021/10/25 04:54:06;;;;;;;15.30;9.03;;;;;;;1.14;84.29;100956.13;1763781;81;21042;-87
2021/10/25 04:56:32;;;;;;;17.98;9.83;;;;;;;1.13;84.40;100956.58;1763698;81;21457;-87
2021/10/25 04:58:58;;;;;;;16.30;9.18;;;;;;;1.12;84.27;100958.78;1763869;81;21024;-87
2021/10/25 05:01:24;;;;;;;17.35;9.83;;;;;;;1.10;84.35;100963.16;1763700;81;22144;-87
2021/10/25 05:03:50;;;;;;;16.85;9.03;;;;;;;1.10;84.40;100959.25;1763876;81;21006;-87
2021/10/25 05:06:19;;;;;;;17.65;9.28;;;;;;;1.13;84.44;100959.19;1763266;81;21091;-87
2021/10/25 05:08:46;;;;;;;19.52;10.90;;;;;;;1.14;84.37;100958.73;1762867;81;21029;-87
2021/10/25 05:11:13;;;;;;;16.85;8.23;;;;;;;1.14;84.35;100955.69;1720735;82;21022;-87
2021/10/25 05:13:40;;;;;;;22.17;10.85;;;;;;;1.14;84.27;100954.38;1769037;81;21014;-87
2021/10/25 05:16:07;;;;;;;23.10;11.63;;;;;;;1.14;84.12;100953.53;1768684;81;21532;-87
2021/10/25 05:18:33;;;;;;;15.60;9.00;;;;;;;1.10;84.25;100950.16;1768917;81;21021;-87
2021/10/25 05:20:59;;;;;;;17.73;9.98;;;;;;;1.11;84.28;100956.20;1768840;81;21026;-87
2021/10/25 05:23:26;;;;;;;19.55;11.22;;;;;;;1.12;84.19;100954.89;1769053;81;20975;-87
2021/10/25 05:25:52;;;;;;;20.60;11.15;;;;;;;1.12;84.20;100957.94;1768793;81;21037;-87
2021/10/25 05:28:18;;;;;;;18.95;10.32;;;;;;;1.12;84.09;100950.14;1768869;81;21037;-87
2021/10/25 05:30:44;;;;;;;17.27;9.68;;;;;;;1.08;84.12;100949.33;1767211;81;21559;-87
2021/10/25 05:33:10;;;;;;;17.85;9.43;;;;;;;1.09;84.14;100941.11;1765995;80;21444;-87
2021/10/25 05:35:38;;;;;;;16.23;8.93;;;;;;;1.04;84.15;100949.45;1760151;80;20943;-86
2021/10/25 05:38:05;;;;;;;15.72;8.55;;;;;;;1.01;84.12;100952.96;1764408;80;21043;-86
2021/10/25 05:40:32;;;;;;;20.23;10.28;;;;;;;0.98;84.14;100950.43;1727340;82;21563;-87
2021/10/25 05:43:01;;;;;;;16.55;9.30;;;;;;;0.95;84.36;100945.30;1750162;81;20981;-87
2021/10/25 05:45:27;;;;;;;16.32;9.23;;;;;;;0.93;84.58;100940.16;1762041;80;21029;-87
2021/10/25 05:47:53;;;;;;;16.48;9.70;;;;;;;0.92;84.60;100939.75;1758283;81;21001;-87
2021/10/25 05:50:19;;;;;;;16.95;8.48;;;;;;;0.92;84.75;100939.75;1751649;81;21029;-87
2021/10/25 05:52:45;;;;;;;21.48;10.53;;;;;;;0.91;84.71;100939.33;1763168;81;20977;-87
2021/10/25 05:55:13;;;;;;;69.70;32.63;;;;;;;0.91;84.75;100938.47;1756067;81;20997;-87
2021/10/25 05:57:39;;;;;;;49.85;23.12;;;;;;;0.87;84.84;100929.90;1762329;81;21495;-87
2021/10/25 06:00:07;;;;;;;28.83;14.28;;;;;;;0.90;84.87;100937.63;1754100;81;20975;-86
2021/10/25 06:02:37;;;;;;;21.85;12.25;;;;;;;0.92;85.19;100929.78;1751959;81;20981;-86
2021/10/25 06:05:06;;;;;;;42.40;20.05;;;;;;;0.94;85.31;100929.31;1748083;82;21480;-88
2021/10/25 06:07:32;;;;;;;56.10;21.02;;;;;;;0.99;85.54;100939.59;1747978;81;21065;-87
2021/10/25 06:09:59;;;;;;;53.38;23.92;;;;;;;1.03;85.66;100935.59;1761364;81;20970;-87
2021/10/25 06:12:27;;;;;;;44.55;16.55;;;;;;;1.08;85.74;100934.18;1770133;81;20989;-86
2021/10/25 06:14:55;;;;;;;29.60;12.60;;;;;;;1.11;85.83;100933.66;1759441;81;21041;-87
2021/10/25 06:17:25;;;;;;;18.85;10.10;;;;;;;1.19;86.03;100929.59;1749582;81;21060;-87
2021/10/25 06:19:50;;;;;;;32.58;11.88;;;;;;;1.26;86.13;100922.05;1763315;81;21515;-87
2021/10/25 06:22:19;;;;;;;43.90;20.50;;;;;;;1.33;86.15;100923.59;1755382;80;20978;-87
2021/10/25 06:24:50;;;;;;;70.50;39.10;;;;;;;1.42;86.12;100925.58;1754934;80;20989;-87
2021/10/25 06:27:16;;;;;;;61.48;28.57;;;;;;;1.49;86.11;100928.42;1750342;82;21029;-87
2021/10/25 06:29:42;;;;;;;39.70;17.48;;;;;;;1.57;85.99;100923.86;1753954;82;21546;-87
2021/10/25 06:32:09;;;;;;;38.08;15.25;;;;;;;1.61;85.86;100922.88;1748549;81;21495;-87
2021/10/25 06:34:40;;;;;;;37.58;15.08;;;;;;;1.68;85.85;100924.87;1753381;81;21032;-87
2021/10/25 06:37:06;;;;;;;31.45;13.10;;;;;;;1.71;85.78;100917.88;1777216;80;21002;-87
2021/10/25 06:39:40;;;;;;;23.15;12.37;;;;;;;1.77;85.78;100924.64;1775011;81;20977;-86
2021/10/25 06:42:07;;;;;;;30.32;14.20;;;;;;;1.81;85.74;100922.35;1778577;81;21053;-87
2021/10/25 06:44:38;;;;;;;29.45;13.90;;;;;;;1.86;85.71;100921.34;1768535;81;21017;-87
2021/10/25 06:47:03;;;;;;;24.90;12.47;;;;;;;1.92;85.70;100925.53;1702812;84;21018;-87
2021/10/25 06:49:29;;;;;;;20.62;10.55;;;;;;;1.96;85.81;100915.89;1704891;84;21605;-87
2021/10/25 06:51:56;;;;;;;24.02;11.33;;;;;;;2.03;85.76;100926.08;1713254;83;21009;-87
2021/10/25 06:54:22;;;;;;;27.42;13.18;;;;;;;2.08;85.79;100923.38;1778447;80;21025;-87
2021/10/25 06:56:49;;;;;;;39.53;18.30;;;;;;;2.16;85.83;100930.95;1778518;81;21049;-87
2021/10/25 06:59:15;;;;;;;31.27;16.57;;;;;;;2.21;85.68;100919.98;1778681;81;21033;-87
2021/10/25 07:01:41;;;;;;;45.85;17.55;;;;;;;2.27;85.63;100921.95;1757891;81;21081;-87
2021/10/25 07:04:07;;;;;;;40.05;16.05;;;;;;;2.33;85.54;100927.41;1751639;81;21022;-87
2021/10/25 07:06:34;;;;;;;23.60;10.55;;;;;;;2.39;85.55;100926.39;1761850;81;20977;-87
2021/10/25 07:09:02;;;;;;;20.48;9.60;;;;;;;2.44;85.48;100921.91;1752912;81;21524;-87
2021/10/25 07:11:29;;;;;;;18.45;8.03;;;;;;;2.48;85.47;100923.52;1758678;81;21081;-87
2021/10/25 07:13:55;;;;;;;16.17;6.83;;;;;;;2.52;85.55;100916.86;1757959;80;21017;-87
2021/10/25 07:16:30;;;;;;;17.77;8.98;;;;;;;2.60;85.66;100923.16;1762124;80;21439;-87
2021/10/25 07:19:15;;;;;;;21.48;10.20;;;;;;;2.67;85.69;100919.92;1758888;80;21090;-87
2021/10/25 08:12:15;;;;;;;12.90;5.87;;;;;;;4.75;85.33;100894.83;1747789;82;21052;-88
2021/10/25 08:14:47;;;;;;;12.25;7.65;;;;;;;4.93;85.32;100895.38;1751253;81;20989;-88
2021/10/25 08:17:17;;;;;;;18.87;8.95;;;;;;;5.08;85.15;100898.70;1753670;81;21089;-87
2021/10/25 08:19:38;;;;;;;19.25;9.28;;;;;;;5.27;84.72;100892.72;1761049;81;21057;-87
2021/10/25 08:22:13;;;;;;;20.02;9.95;;;;;;;5.41;84.13;100897.75;1774510;81;21454;-88
2021/10/25 08:24:43;;;;;;;21.23;10.85;;;;;;;5.57;83.89;100892.73;1726816;82;21133;-87
2021/10/25 08:27:10;;;;;;;19.17;9.60;;;;;;;5.74;83.39;100892.45;1751973;82;20993;-88
2021/10/25 08:29:40;;;;;;;20.48;10.40;;;;;;;5.88;83.05;100883.06;1755043;81;21477;-87
2021/10/25 08:34:48;;;;;;;16.35;10.03;;;;;;;6.18;82.72;100889.66;1748193;82;20980;-87
2021/10/25 08:39:52;;;;;;;13.38;8.03;;;;;;;6.46;82.61;100893.19;1748212;82;21500;-88
2021/10/25 08:42:23;;;;;;;24.60;9.15;;;;;;;6.61;82.12;100890.30;1747640;82;21034;-88
2021/10/25 08:44:58;;;;;;;12.28;5.85;;;;;;;6.80;81.21;100889.81;1703692;84;21018;-88
2021/10/25 08:47:30;;;;;;;10.40;6.15;;;;;;;6.96;80.23;100889.92;1703953;84;21055;-88
2021/10/25 08:49:56;;;;;;;8.08;5.00;;;;;;;7.10;79.69;100873.50;1703877;84;21106;-89
2021/10/25 08:52:25;;;;;;;9.65;4.70;;;;;;;7.28;79.25;100875.22;1704178;84;21070;-89
2021/10/25 08:54:52;;;;;;;6.33;4.03;;;;;;;7.44;78.68;100873.52;1704555;84;21057;-89
2021/10/25 08:57:20;;;;;;;10.98;5.92;;;;;;;7.62;78.54;100874.81;1704522;83;21077;-88
2021/10/25 09:00:06;;;;;;;11.78;5.42;;;;;;;7.79;78.33;100879.19;1704138;84;21037;-87
2021/10/25 09:02:33;;;;;;;8.95;4.85;;;;;;;7.96;77.10;100867.31;1704315;84;21579;-85
2021/10/25 09:05:12;;;;;;;10.75;4.67;;;;;;;8.12;76.45;100867.36;1704180;84;21038;-86
2021/10/25 09:08:03;;;;;;;11.68;4.85;;;;;;;8.27;75.61;100869.17;1712162;84;21045;-88
2021/10/25 09:10:39;;;;;;;8.73;4.20;;;;;;;8.41;75.83;100862.70;1710232;83;21021;-86
2021/10/25 09:13:18;;;;;;;11.28;4.28;;;;;;;8.60;74.93;100867.81;1720886;83;21551;-87
2021/10/25 09:15:55;;;;;;;11.78;4.42;;;;;;;8.76;74.08;100856.43;1747963;82;21545;-88
2021/10/25 09:18:28;;;;;;;7.83;3.98;;;;;;;8.89;73.31;100856.12;1748061;82;21014;-87
2021/10/25 09:21:09;;;;;;;10.43;6.10;;;;;;;9.00;72.70;100849.75;1748159;82;21020;-86
2021/10/25 09:23:44;;;;;;;9.20;4.70;;;;;;;9.14;73.13;100845.84;1747694;82;21539;-87
2021/10/25 09:26:18;;;;;;;11.57;5.85;;;;;;;9.28;72.26;100851.64;1748102;82;21042;-88
2021/10/25 09:28:52;;;;;;;10.05;4.87;;;;;;;9.40;72.06;100849.58;1748012;82;20990;-88
2021/10/25 09:31:28;;;;;;;12.30;5.40;;;;;;;9.55;72.61;100844.35;1748280;82;20994;-89
2021/10/25 09:33:59;;;;;;;6.53;3.65;;;;;;;9.73;71.65;100843.22;1747246;82;21045;-87
2021/10/25 09:36:40;;;;;;;10.68;4.35;;;;;;;9.89;71.51;100843.61;1747853;82;22332;-87
2021/10/25 09:39:15;;;;;;;5.87;3.20;;;;;;;10.03;68.89;100836.53;1714451;83;21042;-86
2021/10/25 09:50:01;;;;;;;7.70;2.85;;;;;;;10.62;66.58;100840.31;1714895;84;21057;-87
2021/10/25 09:52:34;;;;;;;8.55;3.15;;;;;;;10.77;66.13;100835.85;1747627;82;21388;-88
2021/10/25 09:55:05;;;;;;;8.98;3.60;;;;;;;10.88;65.08;100833.81;1747799;82;21042;-87
2021/10/25 09:57:43;;;;;;;5.08;2.37;;;;;;;11.01;66.32;100834.70;1747849;82;21020;-87
2021/10/25 10:00:09;;;;;;;6.30;2.62;;;;;;;11.13;64.84;100831.25;1714267;83;21054;-84
2021/10/25 10:02:36;;;;;;;4.20;2.60;;;;;;;11.25;64.81;100833.08;1714509;84;21484;-86
2021/10/25 10:05:06;;;;;;;5.60;2.90;;;;;;;11.37;64.29;100826.58;1714225;84;21042;-86
2021/10/25 10:07:34;;;;;;;5.22;2.30;;;;;;;11.50;64.55;100826.11;1748056;82;21033;-87
2021/10/25 10:10:00;;;;;;;7.80;2.72;;;;;;;11.64;63.59;100824.68;1713856;83;21018;-89
2021/10/25 10:12:27;;;;;;;6.17;2.50;;;;;;;11.75;62.69;100821.31;1714620;84;20951;-87
2021/10/25 10:14:59;;;;;;;5.37;2.92;;;;;;;11.83;63.25;100824.73;1748030;82;21047;-87
2021/10/25 10:17:49;;;;;;;10.03;3.55;;;;;;;11.92;63.35;100824.13;1748061;82;21523;-88
2021/10/25 10:20:29;;;;;;;7.12;2.83;;;;;;;12.01;62.42;100823.48;1747276;82;21033;-87
2021/10/25 10:22:59;;;;;;;7.15;3.15;;;;;;;12.11;62.00;100828.48;1712561;83;21013;-89
2021/10/25 10:25:30;;;;;;;8.75;4.10;;;;;;;12.17;62.63;100817.47;1748060;82;20997;-90
2021/10/25 10:28:13;;;;;;;8.68;3.00;;;;;;;12.26;62.55;100815.11;1747204;82;21054;-88
2021/10/25 10:31:05;;;;;;;10.73;3.70;;;;;;;12.36;62.24;100810.36;1748461;80;21018;-87
2021/10/25 10:33:40;;;;;;;7.42;3.55;;;;;;;12.49;61.08;100798.89;1748246;80;21479;-86
2021/10/25 10:36:25;;;;;;;6.70;2.98;;;;;;;12.56;60.84;100794.83;1747831;82;21023;-88
2021/10/25 10:39:07;;;;;;;19.17;3.37;;;;;;;12.62;59.98;100803.17;1747711;82;21059;-86
2021/10/25 10:41:44;;;;;;;6.37;3.55;;;;;;;12.66;59.75;100802.45;1748067;82;21020;-87
2021/10/25 10:44:14;;;;;;;5.90;3.47;;;;;;;12.71;59.50;100795.03;1748170;82;21522;-88
2021/10/25 10:47:01;;;;;;;10.88;5.87;;;;;;;12.76;59.86;100792.87;1747782;82;21000;-88
2021/10/25 10:49:54;;;;;;;7.65;3.98;;;;;;;12.84;60.63;100793.65;1747930;82;21072;-88
2021/10/25 10:55:22;;;;;;;12.23;6.50;;;;;;;12.99;58.30;100781.88;1748253;82;20948;-87
2021/10/25 11:00:38;;;;;;;17.02;8.90;;;;;;;13.11;58.35;100776.98;1747764;82;21084;-88
2021/10/25 11:03:25;;;;;;;10.03;4.33;;;;;;;13.15;58.43;100761.70;1747833;82;21067;-88
2021/10/25 11:06:10;;;;;;;7.95;3.58;;;;;;;13.19;55.90;100764.47;1748033;82;21034;-84
2021/10/25 11:08:43;;;;;;;5.83;3.75;;;;;;;13.22;56.33;100758.09;1747984;82;21048;-86
2021/10/25 11:11:16;;;;;;;6.95;3.47;;;;;;;13.25;57.38;100759.22;1747997;82;21031;-87
2021/10/25 11:13:52;;;;;;;9.10;3.60;;;;;;;13.30;56.48;100761.89;1751256;80;20958;-84
2021/10/25 11:16:28;;;;;;;7.03;3.77;;;;;;;13.34;55.83;100755.86;1754441;81;21445;-87
2021/10/25 11:18:55;;;;;;;11.43;4.10;;;;;;;13.35;56.60;100758.38;1761635;81;21056;-86
2021/10/25 11:21:35;;;;;;;6.25;3.85;;;;;;;13.41;55.57;100757.08;1763950;81;21009;-86
2021/10/25 11:24:13;;;;;;;7.12;2.77;;;;;;;13.46;56.25;100764.66;1756541;81;21041;-87
2021/10/25 11:26:55;;;;;;;8.40;4.47;;;;;;;13.49;55.95;100749.84;1700553;84;21018;-86
2021/10/25 11:29:25;;;;;;;9.40;4.45;;;;;;;13.54;55.55;100757.80;1752536;81;21033;-87
2021/10/25 11:31:55;;;;;;;7.00;3.55;;;;;;;13.58;55.37;100755.75;1750531;81;21017;-84
2021/10/25 11:34:32;;;;;;;10.85;4.47;;;;;;;13.64;55.24;100759.74;1714243;82;20990;-88
2021/10/25 11:37:16;;;;;;;11.65;4.95;;;;;;;13.67;55.06;100757.69;1751958;81;20971;-86
2021/10/25 11:39:50;;;;;;;9.08;4.35;;;;;;;13.72;54.62;100750.69;1759829;81;21102;-85
2021/10/25 11:42:20;;;;;;;6.75;3.77;;;;;;;13.77;53.44;100754.67;1758190;81;21487;-86
2021/10/25 11:44:50;;;;;;;9.03;5.00;;;;;;;13.83;54.25;100754.67;1714506;82;21046;-87
2021/10/25 11:47:21;;;;;;;11.40;6.20;;;;;;;13.88;53.15;100744.52;1759887;80;21028;-86
2021/10/25 11:49:51;;;;;;;8.83;4.08;;;;;;;13.92;52.66;100744.66;1760870;81;21479;-88
2021/10/25 11:52:17;;;;;;;8.20;2.62;;;;;;;13.96;52.23;100753.22;1700374;83;21009;-88
2021/10/25 11:54:53;;;;;;;8.35;4.20;;;;;;;13.99;52.30;100733.91;1753958;80;20980;-86
2021/10/25 11:57:23;;;;;;;10.00;5.25;;;;;;;14.02;52.59;100735.48;1763109;81;20977;-86
2021/10/25 12:00:07;;;;;;;8.80;4.85;;;;;;;14.04;51.91;100722.42;1760884;81;21001;-85
2021/10/25 12:02:37;;;;;;;8.68;3.70;;;;;;;14.08;50.88;100729.66;1751585;81;20947;-86
2021/10/25 12:05:05;;;;;;;9.48;4.72;;;;;;;14.09;50.98;100723.41;1756773;81;20949;-86
2021/10/25 12:07:32;;;;;;;12.05;4.97;;;;;;;14.09;51.00;100719.42;1728449;82;20989;-86
2021/10/25 12:10:05;;;;;;;6.65;2.92;;;;;;;14.12;51.32;100717.02;1751786;81;20990;-85
2021/10/25 12:12:35;;;;;;;10.03;3.65;;;;;;;14.13;51.46;100720.02;1761771;81;21460;-86
2021/10/25 12:15:03;;;;;;;11.40;4.97;;;;;;;14.14;51.51;100723.86;1758552;81;21013;-86
2021/10/25 12:17:33;;;;;;;8.08;5.03;;;;;;;14.16;51.30;100721.09;1760940;81;20949;-85
2021/10/25 12:20:11;;;;;;;10.98;4.08;;;;;;;14.15;50.21;100716.73;1760318;81;21466;-84
2021/10/25 12:22:41;;;;;;;9.28;5.05;;;;;;;14.12;49.81;100709.89;1759694;81;21005;-86
2021/10/25 12:25:08;;;;;;;11.63;6.45;;;;;;;14.12;50.27;100720.99;1760061;81;21571;-87
2021/10/25 12:27:41;;;;;;;24.25;12.15;;;;;;;14.11;50.20;100716.62;1756755;81;21005;-85
2021/10/25 12:30:19;;;;;;;15.43;7.70;;;;;;;14.11;50.83;100712.65;1752161;81;21092;-88
2021/10/25 12:32:55;;;;;;;8.25;4.33;;;;;;;14.13;51.16;100716.03;1723880;82;21029;-88
2021/10/25 12:35:41;;;;;;;9.53;4.60;;;;;;;14.16;51.27;100707.83;1765946;80;21044;-86
2021/10/25 12:38:15;;;;;;;6.62;3.22;;;;;;;14.20;50.27;100702.13;1761518;81;21025;-86
2021/10/25 12:40:47;;;;;;;5.87;2.55;;;;;;;14.21;49.33;100702.48;1699275;83;20993;-87
2021/10/25 12:43:16;;;;;;;4.42;2.30;;;;;;;14.23;48.65;100707.19;1758837;81;20973;-83
2021/10/25 12:45:57;;;;;;;5.75;2.45;;;;;;;14.26;47.42;100704.77;1697249;83;21016;-87
2021/10/25 12:48:23;;;;;;;3.70;1.87;;;;;;;14.30;47.16;100695.09;1757366;81;20988;-87
2021/10/25 12:50:50;;;;;;;10.10;5.45;;;;;;;14.30;47.21;100692.93;1760910;81;21009;-87
2021/10/25 12:53:19;;;;;;;6.53;2.98;;;;;;;14.31;47.63;100691.95;1761978;81;21045;-87
2021/10/25 12:55:55;;;;;;;8.70;4.97;;;;;;;14.33;47.73;100689.19;1760968;81;21555;-87
2021/10/25 12:58:23;;;;;;;5.28;2.75;;;;;;;14.36;47.26;100688.94;1761654;81;21515;-87
2021/10/25 13:00:50;;;;;;;6.37;3.45;;;;;;;14.39;46.16;100683.38;1765960;80;21448;-86
2021/10/25 13:03:17;;;;;;;5.15;2.85;;;;;;;14.41;46.32;100682.74;1764080;80;21540;-85
2021/10/25 13:05:50;;;;;;;6.58;2.98;;;;;;;14.40;46.20;100682.39;1741822;82;21307;-85
2021/10/25 13:08:12;;;;;;;5.12;3.27;;;;;;;14.39;46.54;100678.90;1777014;80;21061;-89
2021/10/25 13:10:42;;;;;;;3.65;1.90;;;;;;;14.42;45.51;100673.83;1779127;81;20993;-86